Time;durP1;ratioP1;P1;durP2;ratioP2;P2;SDS_P1;SDS_P2;PMS_P1;PMS_P2;Temp;Humidity;BMP_temperature;BMP_pressure;BME280_temperature;BME280_humidity;BME280_pressure;Samples;Min_cycle;Max_cycle;Signal;HPM_P1;HPM_P2
2021/09/20 00:03:32;;;;;;;3.47;2.37;;;;;;;14.36;58.86;98983.47;5073370;28;40286;-81
2021/09/20 00:05:59;;;;;;;3.37;2.70;;;;;;;14.35;58.89;98981.75;5090268;28;40800;-80
2021/09/20 00:08:27;;;;;;;4.27;2.73;;;;;;;14.41;58.92;98995.63;5090939;28;43024;-81
2021/09/20 00:10:54;;;;;;;5.43;3.20;;;;;;;14.38;59.25;98991.34;5089829;28;41351;-80
2021/09/20 00:13:22;;;;;;;3.80;2.57;;;;;;;14.34;58.99;98998.72;5072085;28;40122;-80
2021/09/20 00:15:49;;;;;;;5.03;3.03;;;;;;;14.32;59.23;98992.69;5070312;28;40737;-79
2021/09/20 00:18:17;;;;;;;5.30;3.20;;;;;;;14.31;59.16;98990.13;5074274;28;42703;-81
2021/09/20 00:20:46;;;;;;;4.33;3.23;;;;;;;14.28;59.24;98985.88;5090584;28;42419;-80
2021/09/20 00:23:13;;;;;;;5.20;3.13;;;;;;;14.29;59.08;98986.72;5091027;28;40923;-80
2021/09/20 00:25:41;;;;;;;5.13;3.23;;;;;;;14.19;59.46;98972.41;5105427;27;42033;-80
2021/09/20 00:28:08;;;;;;;6.23;3.63;;;;;;;14.29;59.47;98994.72;5089618;28;41949;-80
2021/09/20 00:30:40;;;;;;;5.47;3.20;;;;;;;14.19;59.25;98986.56;5087655;28;42492;-80
2021/09/20 00:33:10;;;;;;;4.87;3.23;;;;;;;14.24;59.66;98989.72;5073129;28;40078;-80
2021/09/20 00:35:38;;;;;;;3.07;2.60;;;;;;;14.17;59.58;98974.34;5090299;28;42042;-80
2021/09/20 00:38:07;;;;;;;4.67;3.20;;;;;;;14.23;59.62;98992.50;5072920;28;41974;-82
2021/09/20 00:40:34;;;;;;;4.30;3.13;;;;;;;14.15;59.41;98984.25;5071294;28;41242;-80
2021/09/20 00:43:02;;;;;;;4.33;3.20;;;;;;;14.21;59.74;99005.09;5089857;28;40204;-80
2021/09/20 00:45:30;;;;;;;5.13;3.17;;;;;;;14.20;59.44;98998.09;5090109;28;41138;-80
2021/09/20 00:47:57;;;;;;;5.20;3.00;;;;;;;14.13;59.67;98987.03;5072925;28;41795;-80
2021/09/20 00:50:25;;;;;;;3.43;2.60;;;;;;;14.14;59.54;98990.53;5072131;28;42043;-80
2021/09/20 00:52:52;;;;;;;4.87;3.20;;;;;;;14.21;59.83;99016.63;5073251;28;40341;-80
2021/09/20 00:55:22;;;;;;;5.20;3.33;;;;;;;14.14;59.81;98998.53;5072974;28;41455;-80
2021/09/20 00:57:50;;;;;;;4.80;3.07;;;;;;;14.12;59.67;99006.63;5070945;28;42810;-80
2021/09/20 01:00:18;;;;;;;5.13;4.17;;;;;;;13.96;60.04;98985.63;5071870;28;42082;-80
2021/09/20 01:02:46;;;;;;;5.57;3.77;;;;;;;14.11;59.65;99012.06;5087966;28;39897;-81
2021/09/20 01:05:14;;;;;;;4.17;2.67;;;;;;;13.76;59.91;98967.59;5089216;28;41615;-80
2021/09/20 01:07:41;;;;;;;4.27;2.60;;;;;;;14.01;59.88;99009.22;5089447;28;43883;-80
2021/09/20 01:10:11;;;;;;;4.70;3.30;;;;;;;14.03;59.47;99008.16;5089560;28;43193;-80
2021/09/20 01:12:40;;;;;;;4.87;3.03;;;;;;;14.03;59.64;99013.50;5089628;28;38955;-81
2021/09/20 01:15:09;;;;;;;4.13;2.27;;;;;;;14.03;59.51;99007.31;5089676;28;41113;-81
2021/09/20 01:17:36;;;;;;;4.10;2.83;;;;;;;13.93;59.69;99001.81;5123652;27;42975;-80
2021/09/20 01:20:06;;;;;;;5.20;3.23;;;;;;;14.07;59.48;99024.78;5069023;28;41183;-80
2021/09/20 01:22:36;;;;;;;5.10;3.17;;;;;;;14.09;59.78;99027.31;5089694;28;41002;-80
2021/09/20 01:25:06;;;;;;;5.77;3.23;;;;;;;14.10;59.86;99021.00;5089090;28;42088;-80
2021/09/20 01:27:34;;;;;;;4.93;3.20;;;;;;;13.98;59.84;99010.31;5088903;28;42363;-80
2021/09/20 01:30:01;;;;;;;4.97;3.47;;;;;;;13.99;59.80;99014.69;5070580;28;41518;-81
2021/09/20 01:32:29;;;;;;;5.20;3.67;;;;;;;14.05;60.29;99036.50;5072696;28;40123;-80
2021/09/20 01:34:56;;;;;;;4.27;3.00;;;;;;;13.75;59.90;98987.19;5090637;28;42120;-81
2021/09/20 01:37:24;;;;;;;4.50;3.27;;;;;;;14.06;59.68;99032.88;5071145;28;41757;-80
2021/09/20 01:39:51;;;;;;;5.50;3.80;;;;;;;14.00;59.77;99029.69;5089707;28;43096;-80
2021/09/20 01:42:20;;;;;;;3.53;2.90;;;;;;;13.88;60.21;99017.28;5089085;28;40058;-80
2021/09/20 01:44:48;;;;;;;3.60;2.87;;;;;;;13.88;59.94;99014.63;5073039;28;41101;-81
2021/09/20 01:47:16;;;;;;;3.97;2.53;;;;;;;13.98;60.01;99031.59;5087969;28;43003;-80
2021/09/20 01:49:43;;;;;;;4.17;3.07;;;;;;;13.95;59.81;99029.19;5088008;28;43243;-80
2021/09/20 01:52:11;;;;;;;4.33;3.30;;;;;;;13.84;60.12;99007.00;5088136;28;39799;-80
2021/09/20 01:54:39;;;;;;;3.83;2.90;;;;;;;13.96;60.36;99030.91;5087825;28;41054;-80
2021/09/20 01:57:06;;;;;;;4.10;2.53;;;;;;;13.87;60.10;99018.25;5088307;28;42971;-81
2021/09/20 01:59:35;;;;;;;3.87;2.70;;;;;;;13.97;60.29;99023.75;5086661;28;42097;-80
2021/09/20 02:02:02;;;;;;;4.77;2.80;;;;;;;13.96;60.09;99025.56;5089586;28;39924;-81
2021/09/20 02:04:30;;;;;;;5.30;3.33;;;;;;;13.98;60.05;99028.94;5088805;28;42702;-80
2021/09/20 02:06:58;;;;;;;3.50;2.57;;;;;;;13.99;60.19;99032.47;5089496;28;42923;-80
2021/09/20 02:09:25;;;;;;;3.30;2.47;;;;;;;13.94;60.32;99022.16;5088116;28;41490;-81
2021/09/20 02:11:53;;;;;;;3.67;2.50;;;;;;;13.98;59.95;99033.41;5088976;28;40200;-80
2021/09/20 02:14:20;;;;;;;4.17;2.70;;;;;;;13.94;60.29;99027.50;5071319;28;40724;-81
2021/09/20 02:16:50;;;;;;;5.53;4.07;;;;;;;13.91;60.13;99025.03;5086687;28;43448;-80
2021/09/20 02:19:17;;;;;;;5.20;3.23;;;;;;;13.87;60.11;99033.34;5070093;28;41381;-80
2021/09/20 02:21:45;;;;;;;7.03;3.50;;;;;;;13.85;60.09;99028.16;5071231;28;40502;-80
2021/09/20 02:24:13;;;;;;;3.43;3.10;;;;;;;13.83;60.16;99032.75;5071252;28;40659;-80
2021/09/20 02:26:40;;;;;;;6.53;4.00;;;;;;;13.78;60.45;99013.59;5086611;28;42815;-81
2021/09/20 02:29:08;;;;;;;4.80;3.37;;;;;;;13.81;59.92;99018.72;5087615;28;42554;-81
2021/09/20 02:31:35;;;;;;;5.57;3.20;;;;;;;13.76;60.21;99010.19;5071771;28;39069;-81
2021/09/20 02:34:04;;;;;;;4.97;3.37;;;;;;;13.71;60.15;99012.34;5093193;28;42525;-81
2021/09/20 02:36:32;;;;;;;3.80;2.57;;;;;;;13.80;59.95;99032.97;5092704;28;41966;-80
2021/09/20 02:38:59;;;;;;;4.97;2.83;;;;;;;13.81;60.00;99029.34;5092215;28;42609;-81
2021/09/20 02:41:27;;;;;;;3.03;2.53;;;;;;;13.73;60.20;99029.03;5108993;28;40720;-80
2021/09/20 02:43:54;;;;;;;5.33;2.70;;;;;;;13.79;60.43;99041.06;5109196;28;42743;-80
2021/09/20 02:46:22;;;;;;;4.73;2.80;;;;;;;13.76;60.36;99036.81;5109984;28;42754;-81
2021/09/20 02:48:49;;;;;;;5.03;3.00;;;;;;;13.75;60.27;99045.75;5106430;28;42378;-81
2021/09/20 02:51:18;;;;;;;4.17;3.00;;;;;;;13.78;60.52;99050.84;5090954;28;38897;-80
2021/09/20 02:53:46;;;;;;;3.73;3.13;;;;;;;13.77;60.22;99037.66;5108122;28;40718;-81
2021/09/20 02:56:13;;;;;;;5.50;3.27;;;;;;;13.79;60.28;99035.75;5103570;28;42970;-81
2021/09/20 02:58:42;;;;;;;4.53;3.27;;;;;;;13.64;60.54;99021.72;5088646;28;41978;-80
2021/09/20 03:01:09;;;;;;;5.07;3.03;;;;;;;13.69;60.58;99024.06;5089584;28;39926;-80
2021/09/20 03:03:37;;;;;;;3.83;2.70;;;;;;;13.70;60.68;99042.59;5086386;28;40730;-81
2021/09/20 03:06:04;;;;;;;5.67;3.23;;;;;;;13.76;60.37;99055.44;5087506;28;41839;-80
2021/09/20 03:08:33;;;;;;;3.47;2.27;;;;;;;13.66;60.50;99041.09;5087208;28;42614;-80
2021/09/20 03:11:00;;;;;;;4.70;3.23;;;;;;;13.72;60.79;99053.97;5069819;28;39975;-80
2021/09/20 03:13:28;;;;;;;6.10;3.80;;;;;;;13.68;60.45;99060.47;5086975;28;40865;-80
2021/09/20 03:15:55;;;;;;;5.33;3.10;;;;;;;13.68;60.25;99055.16;5104239;28;43160;-80
2021/09/20 03:18:23;;;;;;;4.13;2.53;;;;;;;13.69;60.47;99051.53;5087358;28;42223;-81
2021/09/20 03:20:51;;;;;;;4.67;2.93;;;;;;;13.67;60.79;99045.47;5087743;28;40188;-80
2021/09/20 03:23:18;;;;;;;3.17;2.87;;;;;;;13.57;60.48;99036.44;5071160;28;40503;-80
2021/09/20 03:25:47;;;;;;;5.20;3.13;;;;;;;13.66;60.58;99049.09;5087497;28;43187;-80
2021/09/20 03:28:15;;;;;;;4.50;3.27;;;;;;;13.68;60.59;99056.97;5087545;28;43254;-81
2021/09/20 03:30:42;;;;;;;5.50;3.40;;;;;;;13.66;60.42;99057.06;5105121;28;39436;-79
2021/09/20 03:33:10;;;;;;;4.87;3.40;;;;;;;13.64;60.32;99048.34;5088209;28;41794;-80
2021/09/20 03:35:38;;;;;;;5.03;3.20;;;;;;;13.60;60.58;99044.19;5104756;28;41789;-80
2021/09/20 03:38:05;;;;;;;3.53;2.53;;;;;;;13.56;60.71;99034.75;5087594;28;42402;-80
2021/09/20 03:40:39;;;;;;;3.70;2.67;;;;;;;13.64;60.68;99048.34;5087662;28;40273;-80
2021/09/20 03:43:08;;;;;;;4.90;3.37;;;;;;;13.65;60.40;99050.91;5088301;28;41900;-80
2021/09/20 03:45:35;;;;;;;3.77;2.33;;;;;;;13.64;60.60;99043.03;5103906;28;43500;-80
2021/09/20 03:48:03;;;;;;;4.47;3.10;;;;;;;13.54;60.38;99036.66;5087258;28;42497;-80
2021/09/20 03:50:30;;;;;;;3.83;2.90;;;;;;;13.65;60.57;99050.91;5085639;28;39988;-80
2021/09/20 03:52:58;;;;;;;7.43;3.53;;;;;;;13.66;60.17;99049.09;5075193;28;41000;-80
2021/09/20 03:55:25;;;;;;;4.80;2.80;;;;;;;13.63;60.21;99047.50;5105641;28;41603;-82
2021/09/20 03:57:53;;;;;;;3.43;2.17;;;;;;;13.60;60.18;99047.69;5105652;28;42786;-80
2021/09/20 04:00:22;;;;;;;4.77;3.10;;;;;;;13.61;60.19;99049.41;5090224;28;40464;-81
2021/09/20 04:02:49;;;;;;;4.43;2.93;;;;;;;13.61;60.42;99059.19;5092100;28;40600;-80
2021/09/20 04:05:16;;;;;;;4.10;2.77;;;;;;;13.56;60.00;99056.03;5110481;28;42167;-80
2021/09/20 04:07:44;;;;;;;3.53;2.70;;;;;;;13.59;60.09;99061.16;5050215;28;41129;-80
2021/09/20 04:10:12;;;;;;;3.37;2.43;;;;;;;13.60;60.07;99057.50;5053293;28;38952;-80
2021/09/20 04:12:40;;;;;;;3.13;2.80;;;;;;;13.61;60.00;99059.19;5053160;28;40901;-80
2021/09/20 04:15:09;;;;;;;4.70;2.87;;;;;;;13.48;60.09;99037.09;5055040;28;42029;-80
2021/09/20 04:17:38;;;;;;;3.97;2.57;;;;;;;13.62;60.27;99063.56;5070003;28;42394;-81
2021/09/20 04:20:07;;;;;;;3.57;2.53;;;;;;;13.59;60.83;99050.50;5069383;28;40168;-80
2021/09/20 04:22:35;;;;;;;3.30;2.20;;;;;;;13.53;60.53;99046.44;5070317;28;40612;-81
2021/09/20 04:25:02;;;;;;;3.73;2.70;;;;;;;13.60;60.34;99057.50;5070475;28;41835;-81
2021/09/20 04:27:30;;;;;;;3.77;2.80;;;;;;;13.61;60.57;99059.19;5070431;28;42749;-80
2021/09/20 04:29:57;;;;;;;4.70;3.00;;;;;;;13.52;60.52;99055.41;5070997;28;39079;-80
2021/09/20 04:32:25;;;;;;;6.60;3.30;;;;;;;13.57;60.40;99065.72;5075109;28;41181;-79
2021/09/20 04:34:54;;;;;;;4.83;3.20;;;;;;;13.56;60.67;99061.34;5074352;28;42783;-80
2021/09/20 04:37:22;;;;;;;6.37;3.80;;;;;;;13.47;60.25;99051.38;5089611;28;42349;-80
2021/09/20 04:39:50;;;;;;;5.07;3.53;;;;;;;13.45;60.61;99053.28;5074219;28;39227;-80
2021/09/20 04:42:17;;;;;;;4.93;2.97;;;;;;;13.45;60.74;99061.28;5073183;28;40815;-79
2021/09/20 04:44:45;;;;;;;3.87;2.73;;;;;;;13.35;60.66;99047.78;5090293;28;41748;-80
2021/09/20 04:47:12;;;;;;;5.80;3.43;;;;;;;13.48;60.50;99074.34;5090593;28;42439;-80
2021/09/20 04:49:41;;;;;;;4.80;3.13;;;;;;;13.47;60.57;99068.19;5089039;28;40391;-80
2021/09/20 04:52:10;;;;;;;4.00;2.57;;;;;;;13.49;60.99;99081.34;5089385;28;41653;-80
2021/09/20 04:54:38;;;;;;;3.80;2.67;;;;;;;13.49;60.82;99074.22;5071667;28;41561;-82
2021/09/20 04:57:05;;;;;;;5.33;3.17;;;;;;;13.48;60.92;99077.00;5089354;28;43602;-80
2021/09/20 04:59:33;;;;;;;5.37;3.23;;;;;;;13.44;60.78;99075.53;5089402;28;39870;-80
2021/09/20 05:02:01;;;;;;;4.90;3.07;;;;;;;13.33;60.87;99059.47;5087370;28;41878;-80
2021/09/20 05:04:28;;;;;;;3.50;2.50;;;;;;;13.37;61.08;99066.25;5088439;28;43184;-79
2021/09/20 05:06:56;;;;;;;5.07;3.40;;;;;;;13.45;61.11;99088.72;5066883;28;41252;-81
2021/09/20 05:09:25;;;;;;;6.07;3.13;;;;;;;13.44;61.49;99094.16;5068629;28;39026;-80
2021/09/20 05:11:52;;;;;;;4.23;2.87;;;;;;;13.41;61.19;99089.03;5070700;28;41090;-80
2021/09/20 05:14:20;;;;;;;5.30;3.00;;;;;;;13.28;61.43;99073.94;5090028;28;43850;-81
2021/09/20 05:16:49;;;;;;;4.50;2.83;;;;;;;13.43;61.27;99095.97;5068933;28;41359;-80
2021/09/20 05:19:16;;;;;;;4.37;2.83;;;;;;;13.46;61.48;99094.91;5069722;28;40841;-81
2021/09/20 05:21:44;;;;;;;3.77;2.73;;;;;;;13.42;61.42;99088.09;5078322;28;41622;-81
2021/09/20 05:24:11;;;;;;;3.47;2.83;;;;;;;13.52;61.13;99105.09;5072626;28;42151;-80
2021/09/20 05:26:40;;;;;;;4.90;3.00;;;;;;;13.56;61.18;99109.25;5072127;28;42101;-80
2021/09/20 05:29:08;;;;;;;4.67;2.70;;;;;;;13.59;61.26;99106.38;5072297;28;39061;-80
2021/09/20 05:31:35;;;;;;;4.97;3.20;;;;;;;13.60;61.25;99113.38;5073104;28;40845;-81
2021/09/20 05:34:03;;;;;;;4.40;2.63;;;;;;;13.55;61.74;99094.25;5089400;28;42920;-80
2021/09/20 05:36:30;;;;;;;4.70;2.50;;;;;;;13.57;61.30;99100.31;5071102;28;41452;-80
2021/09/20 05:38:58;;;;;;;4.40;3.00;;;;;;;13.62;61.19;99109.66;5073382;28;39216;-79
2021/09/20 05:41:25;;;;;;;3.57;2.80;;;;;;;13.66;61.48;99115.63;5088973;28;41809;-80
2021/09/20 05:43:55;;;;;;;5.00;3.03;;;;;;;13.69;61.60;99112.75;5089587;28;43850;-80
2021/09/20 05:46:22;;;;;;;3.90;2.80;;;;;;;13.72;61.50;99109.88;5086976;28;42524;-80
2021/09/20 05:48:50;;;;;;;4.13;3.00;;;;;;;13.73;61.40;99114.22;5104057;28;39192;-81
2021/09/20 05:51:17;;;;;;;9.57;5.40;;;;;;;13.67;61.53;99104.03;5087861;28;41942;-80
2021/09/20 05:53:45;;;;;;;5.20;3.97;;;;;;;13.55;61.60;99076.47;5088443;28;43137;-79
2021/09/20 05:56:13;;;;;;;6.43;3.10;;;;;;;13.77;61.83;99117.50;5088384;28;42118;-80
2021/09/20 05:58:48;;;;;;;5.20;3.20;;;;;;;13.67;61.73;99106.69;5117117;27;40959;-85
2021/09/20 06:01:17;;;;;;;5.07;2.83;;;;;;;13.79;61.99;99116.44;5084873;28;42022;-84
2021/09/20 06:03:45;;;;;;;3.80;2.97;;;;;;;13.79;61.81;99121.78;5088784;28;43170;-82
2021/09/20 06:06:12;;;;;;;5.03;3.03;;;;;;;13.79;61.50;99120.94;5087680;28;42301;-84
2021/09/20 06:08:40;;;;;;;4.03;2.77;;;;;;;13.77;62.13;99117.50;5089448;28;40123;-84
2021/09/20 06:11:07;;;;;;;4.90;3.63;;;;;;;13.85;61.97;99125.78;5085415;28;42702;-80
2021/09/20 06:13:34;;;;;;;4.10;2.73;;;;;;;13.87;61.87;99124.72;5087760;28;42685;-81
2021/09/20 06:16:07;;;;;;;4.93;3.67;;;;;;;13.78;61.67;99109.44;5087906;28;40972;-78
2021/09/20 06:18:36;;;;;;;5.07;3.03;;;;;;;13.91;61.75;99128.88;5088358;28;39698;-79
2021/09/20 06:21:04;;;;;;;4.47;2.90;;;;;;;13.84;61.59;99119.66;5071051;28;40741;-84
2021/09/20 06:23:32;;;;;;;3.73;3.07;;;;;;;13.92;61.63;99130.59;5072752;28;43306;-84
2021/09/20 06:25:59;;;;;;;7.47;4.20;;;;;;;13.98;61.54;99142.59;5089097;28;42665;-84
2021/09/20 06:28:27;;;;;;;5.50;3.87;;;;;;;13.97;61.49;99130.28;5089325;28;40167;-78
2021/09/20 06:30:54;;;;;;;3.70;2.70;;;;;;;14.10;61.84;99141.72;5070520;28;42536;-77
2021/09/20 06:33:22;;;;;;;4.60;2.73;;;;;;;14.15;61.43;99138.72;5087087;28;42933;-77
2021/09/20 06:35:55;;;;;;;4.23;2.67;;;;;;;14.20;61.49;99141.91;5087390;28;42151;-78
2021/09/20 06:38:23;;;;;;;4.17;3.20;;;;;;;14.23;61.44;99131.00;5071214;28;39231;-80
2021/09/20 06:40:50;;;;;;;5.93;3.17;;;;;;;14.26;60.74;99144.97;5083056;28;42583;-78
2021/09/20 06:43:19;;;;;;;5.17;3.40;;;;;;;14.25;60.82;99137.09;5054777;28;42891;-86
2021/09/20 06:45:46;;;;;;;3.17;2.60;;;;;;;14.28;60.82;99132.41;5071467;28;41157;-81
2021/09/20 06:48:14;;;;;;;5.60;3.20;;;;;;;14.45;60.93;99136.53;5088436;28;39830;-82
2021/09/20 06:50:41;;;;;;;3.97;2.97;;;;;;;14.18;60.70;99077.25;5072356;28;41110;-84
2021/09/20 06:53:11;;;;;;;5.00;2.93;;;;;;;14.58;60.69;99137.31;5088504;28;43543;-85
2021/09/20 06:55:38;;;;;;;4.93;2.80;;;;;;;14.52;60.52;99116.44;5067519;28;42265;-83
2021/09/20 06:58:06;;;;;;;4.40;3.07;;;;;;;14.77;60.39;99157.25;5050918;28;39100;-82
2021/09/20 07:00:40;;;;;;;6.63;4.50;;;;;;;14.76;60.37;99160.88;5085396;28;42871;-83
2021/09/20 07:03:08;;;;;;;6.63;4.33;;;;;;;14.84;59.96;99154.00;5087714;28;44138;-81
2021/09/20 07:05:35;;;;;;;3.80;2.63;;;;;;;14.90;59.79;99164.22;5070938;28;41070;-81
2021/09/20 07:08:03;;;;;;;3.07;2.20;;;;;;;15.01;59.66;99166.06;5087898;28;40165;-83
2021/09/20 07:10:33;;;;;;;3.50;2.90;;;;;;;15.03;59.41;99164.16;5049090;28;40489;-83
2021/09/20 07:13:00;;;;;;;4.13;2.47;;;;;;;15.12;59.44;99173.25;5083161;28;41870;-84
2021/09/20 07:15:29;;;;;;;4.20;2.47;;;;;;;15.09;59.45;99161.00;5050133;28;42493;-83
2021/09/20 07:17:56;;;;;;;4.03;3.23;;;;;;;15.14;59.13;99171.34;5033900;28;38654;-79
2021/09/20 07:20:24;;;;;;;3.00;2.60;;;;;;;15.16;59.35;99159.59;5031893;28;40688;-82
2021/09/20 07:22:51;;;;;;;4.87;3.03;;;;;;;15.35;59.08;99185.69;5033239;28;42935;-82
2021/09/20 07:25:19;;;;;;;5.73;3.20;;;;;;;15.36;59.19;99177.56;5032894;28;42653;-80
2021/09/20 07:27:48;;;;;;;4.60;3.33;;;;;;;15.45;58.37;99198.22;5049562;28;40029;-89
2021/09/20 07:30:17;;;;;;;4.37;3.33;;;;;;;15.53;58.73;99194.97;5035485;28;40955;-79
2021/09/20 07:32:46;;;;;;;3.60;2.60;;;;;;;15.60;58.27;99200.69;5028908;28;41508;-82
2021/09/20 07:35:16;;;;;;;2.80;2.47;;;;;;;15.58;57.68;99194.66;5048091;28;42401;-85
2021/09/20 07:37:44;;;;;;;3.83;2.53;;;;;;;15.57;57.72;99193.81;5049074;28;39080;-85
2021/09/20 07:40:12;;;;;;;3.30;2.47;;;;;;;15.62;57.30;99196.94;5052777;28;41896;-83
2021/09/20 07:42:41;;;;;;;3.43;2.77;;;;;;;15.72;57.64;99199.75;5085016;28;42800;-83
2021/09/20 07:45:11;;;;;;;3.83;2.77;;;;;;;15.93;57.65;99207.91;5090570;28;43434;-84
2021/09/20 07:47:39;;;;;;;3.60;3.00;;;;;;;15.98;56.41;99216.41;5074542;28;38888;-87
2021/09/20 07:50:09;;;;;;;2.50;2.07;;;;;;;16.06;56.31;99222.84;5075032;28;40674;-84
2021/09/20 07:52:40;;;;;;;18.80;10.27;;;;;;;16.16;56.43;99220.28;5090041;28;41784;-84
2021/09/20 07:55:08;;;;;;;5.77;4.17;;;;;;;16.04;55.77;99192.72;5074005;28;41743;-85
2021/09/20 07:57:36;;;;;;;3.63;2.63;;;;;;;16.28;55.41;99231.81;5073611;28;39960;-78
2021/09/20 08:00:05;;;;;;;2.37;1.77;;;;;;;16.05;55.25;99183.75;5090524;28;42738;-79
2021/09/20 08:02:34;;;;;;;3.47;2.90;;;;;;;16.38;54.97;99227.44;5089599;28;43101;-79
2021/09/20 08:05:13;;;;;;;2.33;2.13;;;;;;;16.38;54.76;99224.75;5090921;28;41238;-87
2021/09/20 08:07:45;;;;;;;3.60;2.33;;;;;;;16.56;54.71;99234.00;5074806;28;38948;-86
2021/09/20 08:10:12;;;;;;;2.57;2.07;;;;;;;16.39;54.14;99205.94;5073891;28;41286;-86
2021/09/20 08:12:41;;;;;;;4.00;2.63;;;;;;;16.69;54.02;99241.91;5089962;28;42941;-86
2021/09/20 08:15:09;;;;;;;3.00;2.13;;;;;;;16.74;54.33;99229.84;5089915;28;42300;-89
2021/09/20 08:17:38;;;;;;;3.90;2.60;;;;;;;16.95;53.97;99240.59;5090930;28;40081;-79
2021/09/20 08:20:08;;;;;;;2.53;1.97;;;;;;;17.07;54.30;99236.91;5090683;28;42737;-81
2021/09/20 08:22:36;;;;;;;2.57;2.10;;;;;;;17.25;53.93;99247.91;5072596;28;42085;-81
2021/09/20 08:25:04;;;;;;;2.53;1.90;;;;;;;17.36;52.76;99255.88;5090802;28;42361;-83
2021/09/20 08:27:32;;;;;;;1.97;1.70;;;;;;;17.38;52.23;99253.94;5072926;28;38638;-85
2021/09/20 08:30:00;;;;;;;2.50;1.90;;;;;;;17.38;52.56;99248.59;5073717;28;41675;-85
2021/09/20 08:32:27;;;;;;;2.60;2.40;;;;;;;17.51;52.14;99259.09;5090135;28;41690;-84
2021/09/20 08:34:57;;;;;;;3.20;2.57;;;;;;;17.57;52.07;99264.78;5072637;28;41131;-84
2021/09/20 08:37:26;;;;;;;2.33;2.13;;;;;;;17.64;52.67;99258.94;5073524;28;38825;-89
2021/09/20 08:39:54;;;;;;;3.40;2.60;;;;;;;17.76;52.65;99258.75;5090425;28;41768;-85
2021/09/20 08:42:22;;;;;;;3.40;2.30;;;;;;;17.81;51.63;99266.38;5124764;27;43853;-85
2021/09/20 08:44:50;;;;;;;3.20;2.30;;;;;;;17.90;50.97;99281.69;5072467;28;41356;-81
2021/09/20 08:47:19;;;;;;;2.83;1.93;;;;;;;17.88;50.63;99273.78;5090708;28;39067;-88
2021/09/20 08:49:50;;;;;;;3.03;2.37;;;;;;;17.94;50.33;99272.38;5069807;28;42053;-87
2021/09/20 08:52:23;;;;;;;3.20;2.37;;;;;;;18.21;50.73;99280.72;5072434;28;42023;-80
2021/09/20 08:54:51;;;;;;;3.07;2.20;;;;;;;18.41;49.47;99296.91;5072026;28;42269;-86
2021/09/20 08:57:21;;;;;;;3.43;2.50;;;;;;;18.53;49.59;99295.84;5073523;28;39835;-90
2021/09/20 08:59:49;;;;;;;3.03;2.27;;;;;;;18.65;48.31;99300.16;5073113;28;41582;-82
2021/09/20 09:02:19;;;;;;;2.73;1.87;;;;;;;18.89;49.08;99292.59;5088940;28;42827;-81
2021/09/20 09:04:46;;;;;;;2.53;2.07;;;;;;;19.11;48.20;99285.28;5090319;28;42255;-86
2021/09/20 09:07:19;;;;;;;3.00;2.33;;;;;;;19.37;47.32;99291.78;5072956;28;39372;-85
2021/09/20 09:09:50;;;;;;;2.57;2.30;;;;;;;19.59;46.49;99296.06;5072530;28;40840;-83
2021/09/20 09:12:20;;;;;;;4.10;2.63;;;;;;;19.73;44.95;99312.59;5072758;28;41857;-82
2021/09/20 09:14:51;;;;;;;3.00;2.30;;;;;;;19.89;44.75;99313.88;5089071;28;42463;-82
2021/09/20 09:17:22;;;;;;;2.70;2.30;;;;;;;20.19;43.70;99324.41;5089126;28;40363;-78
2021/09/20 09:19:52;;;;;;;2.40;2.03;;;;;;;20.36;43.58;99298.63;5072224;28;40395;-79
2021/09/20 09:22:20;;;;;;;3.10;2.13;;;;;;;20.78;43.74;99317.84;5087631;28;41902;-83
2021/09/20 09:24:58;;;;;;;2.73;2.20;;;;;;;21.13;42.04;99328.72;5089425;28;42595;-80
2021/09/20 09:27:27;;;;;;;2.20;2.00;;;;;;;21.41;42.41;99332.25;5123041;27;40438;-82
2021/09/20 09:30:14;;;;;;;2.70;2.10;;;;;;;21.60;40.12;99347.44;5089262;28;41893;-81
2021/09/20 09:32:43;;;;;;;2.93;2.00;;;;;;;21.61;39.88;99343.75;5089038;28;43851;-83
2021/09/20 09:35:13;;;;;;;2.07;1.90;;;;;;;21.75;40.23;99348.59;5088791;28;42058;-84
2021/09/20 09:37:42;;;;;;;2.53;1.83;;;;;;;21.94;38.63;99354.81;5089281;28;40807;-81
2021/09/20 09:40:21;;;;;;;2.17;1.70;;;;;;;22.03;38.85;99348.50;5087665;28;41988;-81
2021/09/20 09:42:51;;;;;;;2.43;1.93;;;;;;;22.27;39.11;99351.38;5088574;28;43142;-80
2021/09/20 09:45:30;;;;;;;1.73;1.63;;;;;;;22.39;37.85;99358.19;5088828;28;43147;-80
2021/09/20 09:48:08;;;;;;;2.57;2.27;;;;;;;22.32;38.42;99348.22;5072347;28;38940;-85
2021/09/20 09:50:40;;;;;;;1.57;1.47;;;;;;;22.53;38.53;99357.63;5088294;28;41517;-81
2021/09/20 09:53:08;;;;;;;1.70;1.60;;;;;;;22.49;36.66;99352.72;5088731;28;41912;-82
2021/09/20 09:55:43;;;;;;;1.97;1.53;;;;;;;22.68;37.24;99348.94;5071755;28;41192;-86
2021/09/20 09:58:12;;;;;;;2.43;1.77;;;;;;;22.87;36.48;99354.97;5071506;28;38887;-83
2021/09/20 10:00:40;;;;;;;1.50;1.40;;;;;;;23.28;37.46;99361.38;5087315;28;40876;-82
2021/09/20 10:03:07;;;;;;;3.47;1.83;;;;;;;23.57;36.36;99368.25;5088934;28;43545;-81
2021/09/20 10:05:39;;;;;;;2.93;1.67;;;;;;;23.63;34.59;99372.97;5072697;28;42244;-84
2021/09/20 10:08:11;;;;;;;2.00;1.80;;;;;;;23.62;35.05;99372.13;5071822;28;39118;-85
2021/09/20 10:10:41;;;;;;;2.23;1.73;;;;;;;23.60;35.02;99370.63;5088163;28;41685;-86
2021/09/20 10:13:11;;;;;;;1.83;1.40;;;;;;;23.74;34.73;99377.25;5088059;28;42291;-83
2021/09/20 10:15:45;;;;;;;13.30;9.27;;;;;;;23.79;34.42;99367.59;5072054;28;41319;-83
2021/09/20 10:18:13;;;;;;;4.10;3.20;;;;;;;24.42;34.43;99368.78;5071424;28;39928;-81
2021/09/20 10:20:40;;;;;;;2.10;1.90;;;;;;;24.46;33.15;99376.41;5086284;28;41722;-83
2021/09/20 10:23:09;;;;;;;1.93;1.50;;;;;;;24.44;33.22;99367.59;5088670;28;43887;-81
2021/09/20 10:25:36;;;;;;;1.90;1.60;;;;;;;24.31;33.49;99357.31;5087687;28;42061;-85
2021/09/20 10:28:06;;;;;;;2.03;1.83;;;;;;;24.58;33.07;99380.44;5072173;28;40528;-87
2021/09/20 10:30:35;;;;;;;1.70;1.50;;;;;;;24.55;32.31;99375.38;5088493;28;42775;-84
2021/09/20 10:33:08;;;;;;;1.47;1.30;;;;;;;24.47;33.25;99363.72;5106027;28;41821;-86
2021/09/20 10:35:43;;;;;;;1.97;1.53;;;;;;;24.48;33.53;99358.09;5071738;28;41364;-85
2021/09/20 10:38:30;;;;;;;2.03;1.77;;;;;;;24.64;32.69;99379.75;5087193;28;40434;-83
2021/09/20 10:41:10;;;;;;;1.60;1.50;;;;;;;24.69;32.98;99371.97;5071115;28;40542;-84
2021/09/20 10:43:41;;;;;;;6.20;4.10;;;;;;;24.78;32.33;99369.22;5087310;28;43053;-85
2021/09/20 10:46:21;;;;;;;9.23;5.20;;;;;;;25.30;32.02;99383.09;5071409;28;41058;-84
2021/09/20 10:48:53;;;;;;;3.10;2.30;;;;;;;25.77;31.60;99361.31;5087003;28;40056;-82
2021/09/20 10:51:25;;;;;;;2.10;1.93;;;;;;;25.98;30.27;99391.34;5050402;28;41646;-83
2021/09/20 10:54:23;;;;;;;2.33;1.90;;;;;;;25.85;30.60;99385.66;5067583;28;42059;-83
2021/09/20 10:56:54;;;;;;;1.83;1.73;;;;;;;25.89;30.61;99384.28;5050224;28;43160;-84
2021/09/20 10:59:28;;;;;;;2.03;1.50;;;;;;;26.24;30.69;99384.69;5087906;28;39237;-82
2021/09/20 11:02:16;;;;;;;1.50;1.40;;;;;;;26.23;30.05;99380.28;5089771;28;42798;-85
2021/09/20 11:04:44;;;;;;;1.70;1.60;;;;;;;26.27;29.07;99389.75;5088654;28;42925;-86
2021/09/20 11:07:21;;;;;;;1.97;1.50;;;;;;;26.31;28.69;99380.25;5088344;28;42303;-84
2021/09/20 11:10:06;;;;;;;1.30;1.20;;;;;;;26.62;28.25;99389.09;5074401;28;39984;-84
2021/09/20 11:12:59;;;;;;;1.83;1.50;;;;;;;26.87;28.05;99402.44;5091772;28;42615;-82
2021/09/20 11:15:28;;;;;;;1.97;1.77;;;;;;;27.04;28.89;99393.94;5090841;28;43450;-84
2021/09/20 11:17:56;;;;;;;1.67;1.57;;;;;;;27.39;28.17;99386.88;5091997;28;43015;-83
2021/09/20 11:20:35;;;;;;;1.70;1.60;;;;;;;28.19;28.40;99383.16;5091169;28;40466;-84
2021/09/20 11:23:39;;;;;;;1.83;1.60;;;;;;;28.76;26.49;99404.78;5091629;28;41997;-83
2021/09/20 11:26:19;;;;;;;1.50;1.40;;;;;;;29.61;25.86;99406.34;5091695;28;42167;-88
2021/09/20 11:28:53;;;;;;;1.70;1.60;;;;;;;29.39;25.26;99410.25;5073135;28;41158;-84
2021/09/20 11:31:31;;;;;;;1.50;1.40;;;;;;;29.92;24.36;99422.19;5088314;28;39004;-83
2021/09/20 11:33:59;;;;;;;1.57;1.47;;;;;;;30.30;25.64;99409.66;5086490;28;42026;-83
2021/09/20 11:36:33;;;;;;;1.80;1.70;;;;;;;30.35;25.38;99412.59;5071643;28;42797;-82
2021/09/20 11:39:11;;;;;;;1.73;1.63;;;;;;;30.47;24.61;99406.50;5105418;27;41954;-86
2021/09/20 11:41:40;;;;;;;1.50;1.37;;;;;;;31.30;23.65;99415.88;5089419;28;40232;-83
2021/09/20 11:44:08;;;;;;;1.87;1.70;;;;;;;32.29;22.43;99432.69;5088521;28;41499;-81
2021/09/20 11:46:38;;;;;;;1.80;1.63;;;;;;;32.16;22.71;99427.25;5087469;28;43203;-81